Time;durP1;ratioP1;P1;durP2;ratioP2;P2;SDS_P1;SDS_P2;PMS_P1;PMS_P2;Temp;Humidity;BMP_temperature;BMP_pressure;BME280_temperature;BME280_humidity;BME280_pressure;Samples;Min_cycle;Max_cycle;Signal;HPM_P1;HPM_P2
2021/04/21 00:01:21;;;;;;;19.27;17.08;;;;;;;11.33;54.25;99389.00;5077061;28;20016;-80
2021/04/21 00:03:48;;;;;;;18.60;16.60;;;;;;;11.70;54.05;99437.38;5094797;28;20024;-78
2021/04/21 00:06:15;;;;;;;17.80;15.80;;;;;;;12.21;54.14;99514.06;5094782;28;20044;-78
2021/04/21 00:08:41;;;;;;;17.42;14.15;;;;;;;12.23;54.20;99512.84;5094843;28;20034;-77
2021/04/21 00:11:07;;;;;;;16.02;12.90;;;;;;;12.25;54.62;99508.19;5095347;28;20157;-77
2021/04/21 00:13:34;;;;;;;15.93;14.23;;;;;;;11.83;54.29;99452.59;5096823;28;20016;-83
2021/04/21 00:16:00;;;;;;;16.23;14.50;;;;;;;12.19;54.01;99518.72;5079862;28;20358;-82
2021/04/21 00:18:27;;;;;;;13.60;12.30;;;;;;;11.56;53.84;99414.44;5094932;28;20031;-83
2021/04/21 00:21:03;;;;;;;15.15;13.25;;;;;;;12.15;54.74;99513.00;5077104;28;20031;-82
2021/04/21 00:23:32;;;;;;;13.25;11.93;;;;;;;12.14;54.47;99510.53;5095082;28;20107;-81
2021/04/21 00:26:00;;;;;;;12.82;11.52;;;;;;;12.08;54.64;99502.34;5094604;28;20020;-81
2021/04/21 00:28:29;;;;;;;12.38;11.07;;;;;;;12.11;54.31;99514.38;5094716;28;20110;-83
2021/04/21 00:30:56;;;;;;;12.93;11.60;;;;;;;11.79;54.97;99473.31;5094636;28;20020;-85
2021/04/21 00:33:24;;;;;;;13.45;12.05;;;;;;;11.92;54.75;99486.72;5095005;28;20036;-83
2021/04/21 00:35:53;;;;;;;13.85;12.15;;;;;;;12.11;54.47;99521.50;5076589;28;20411;-81
2021/04/21 00:38:20;;;;;;;14.30;12.65;;;;;;;11.58;54.80;99442.34;5078482;28;20020;-83
2021/04/21 00:40:45;;;;;;;15.70;13.55;;;;;;;12.06;54.87;99516.75;5098770;28;20027;-84
2021/04/21 00:43:27;;;;;;;14.90;13.32;;;;;;;11.94;54.93;99511.16;5080721;28;20085;-82
2021/04/21 00:46:33;;;;;;;15.60;12.80;;;;;;;12.01;55.59;99521.81;5080680;28;20024;-85
2021/04/21 00:49:40;;;;;;;15.70;13.95;;;;;;;11.72;55.92;99489.06;5075759;28;20114;-80
2021/04/21 00:52:12;;;;;;;17.83;13.70;;;;;;;11.80;55.41;99519.09;5098690;28;20038;-82
2021/04/21 00:55:22;;;;;;;20.25;15.82;;;;;;;11.86;55.57;99523.63;5098357;28;20031;-86
2021/04/21 00:58:02;;;;;;;22.42;16.75;;;;;;;11.89;55.76;99521.47;5075286;28;20059;-84
2021/04/21 01:00:34;;;;;;;21.23;16.80;;;;;;;11.93;55.43;99532.50;5098362;28;20028;-84
2021/04/21 01:03:05;;;;;;;24.50;18.50;;;;;;;11.86;55.29;99516.53;5098251;28;20048;-82
2021/04/21 01:05:36;;;;;;;21.77;16.77;;;;;;;11.98;55.60;99552.09;5079848;28;20047;-82
2021/04/21 01:08:05;;;;;;;19.80;14.70;;;;;;;11.93;55.50;99521.91;5098405;28;20112;-82
2021/04/21 01:10:38;;;;;;;19.35;15.05;;;;;;;11.07;55.38;99373.63;5098076;28;20414;-83
2021/04/21 01:13:04;;;;;;;18.92;15.30;;;;;;;12.06;55.37;99528.16;5098113;28;20422;-82
2021/04/21 01:15:33;;;;;;;18.80;15.20;;;;;;;11.97;55.21;99505.47;5079954;28;20013;-78
2021/04/21 01:18:01;;;;;;;16.95;13.55;;;;;;;11.84;55.33;99494.72;5098221;28;20024;-81
2021/04/21 01:20:43;;;;;;;16.70;12.18;;;;;;;12.02;55.64;99539.31;5098098;28;20055;-83
2021/04/21 01:23:38;;;;;;;12.15;10.93;;;;;;;11.98;55.52;99530.94;5098523;28;20020;-81
2021/04/21 01:26:29;;;;;;;12.60;11.13;;;;;;;12.02;55.08;99532.19;5098927;28;20030;-80
2021/04/21 01:28:56;;;;;;;14.25;12.00;;;;;;;11.60;55.56;99458.84;5080509;28;20487;-76
2021/04/21 01:31:23;;;;;;;16.27;13.18;;;;;;;11.25;55.56;99410.25;5079862;28;20024;-79
2021/04/21 01:33:52;;;;;;;19.85;13.93;;;;;;;12.09;55.97;99529.63;5079693;28;20028;-79
2021/04/21 01:36:22;;;;;;;20.17;14.68;;;;;;;11.48;55.46;99448.94;5097772;28;20028;-80
2021/04/21 01:38:50;;;;;;;23.38;15.00;;;;;;;12.13;55.50;99535.34;5079614;28;20020;-80
2021/04/21 01:41:26;;;;;;;19.17;15.23;;;;;;;11.80;55.59;99493.47;5098168;28;20036;-81
2021/04/21 01:43:57;;;;;;;20.20;15.75;;;;;;;12.05;55.27;99520.41;5079843;28;20054;-80
2021/04/21 01:46:25;;;;;;;22.50;16.58;;;;;;;12.11;55.37;99532.06;5097510;28;20383;-79
2021/04/21 01:48:57;;;;;;;23.65;19.27;;;;;;;12.12;55.96;99531.06;5097279;28;20019;-77
2021/04/21 01:51:32;;;;;;;23.33;18.13;;;;;;;12.05;55.81;99515.13;5097718;28;20051;-82
2021/04/21 01:54:07;;;;;;;24.80;19.05;;;;;;;12.13;55.72;99548.59;5097471;28;20020;-77
2021/04/21 01:56:41;;;;;;;20.13;16.52;;;;;;;12.14;56.01;99529.88;5079498;28;20020;-81
2021/04/21 01:59:16;;;;;;;20.15;16.27;;;;;;;12.16;56.31;99527.84;5097464;28;20043;-81
2021/04/21 02:02:06;;;;;;;21.33;16.48;;;;;;;12.01;55.76;99516.50;5097293;28;20020;-81
2021/04/21 02:04:54;;;;;;;19.75;15.77;;;;;;;12.09;55.68;99537.56;5097038;28;20020;-83
2021/04/21 02:07:56;;;;;;;26.73;19.27;;;;;;;12.07;55.16;99540.41;5096894;28;20461;-81
2021/04/21 02:10:43;;;;;;;27.35;20.35;;;;;;;12.07;55.54;99545.69;5097133;28;20024;-78
2021/04/21 02:13:34;;;;;;;25.55;20.10;;;;;;;12.04;55.85;99546.06;5097058;28;20024;-79
2021/04/21 02:16:23;;;;;;;22.83;18.75;;;;;;;12.02;55.65;99537.50;5058801;28;20032;-78
2021/04/21 02:19:03;;;;;;;26.27;19.15;;;;;;;12.04;55.58;99539.94;5098481;28;20032;-77
2021/04/21 02:21:44;;;;;;;23.42;17.38;;;;;;;11.69;55.48;99493.91;5078830;28;20024;-78
2021/04/21 02:24:34;;;;;;;21.15;16.30;;;;;;;12.04;55.72;99546.06;5096889;28;20032;-80
2021/04/21 02:27:04;;;;;;;22.73;17.05;;;;;;;11.99;55.82;99542.34;5096837;28;20024;-79
2021/04/21 02:29:40;;;;;;;16.40;13.85;;;;;;;11.97;55.65;99544.34;5096690;28;20350;-77
2021/04/21 02:32:20;;;;;;;17.85;14.35;;;;;;;11.72;55.91;99525.28;5096699;28;20024;-76
2021/04/21 02:35:00;;;;;;;16.38;13.52;;;;;;;11.91;55.55;99545.91;5078565;28;20431;-78
2021/04/21 02:37:40;;;;;;;15.80;13.80;;;;;;;11.48;55.55;99484.13;5078609;28;20032;-77
2021/04/21 02:40:11;;;;;;;15.55;13.25;;;;;;;11.91;56.28;99539.81;5096834;28;20024;-78
2021/04/21 02:42:42;;;;;;;14.40;12.55;;;;;;;10.74;55.85;99367.94;5096225;28;20024;-79
2021/04/21 02:45:12;;;;;;;16.02;13.43;;;;;;;11.76;56.16;99558.28;5096299;28;20020;-80
2021/04/21 02:47:46;;;;;;;15.25;13.75;;;;;;;11.66;55.99;99553.28;5096307;28;20032;-78
2021/04/21 02:50:30;;;;;;;15.60;13.93;;;;;;;11.60;56.84;99556.69;5096470;28;20055;-78
2021/04/21 02:53:06;;;;;;;14.75;13.18;;;;;;;11.65;56.31;99559.59;5096304;28;20119;-80
2021/04/21 02:56:09;;;;;;;15.88;14.20;;;;;;;11.67;56.45;99548.81;5096155;28;20330;-78
2021/04/21 02:58:57;;;;;;;16.45;13.48;;;;;;;11.66;55.97;99552.47;5078060;28;20028;-78
2021/04/21 03:01:39;;;;;;;16.00;14.20;;;;;;;11.69;55.81;99560.84;5078731;28;20291;-80
2021/04/21 03:04:34;;;;;;;;;;;;;;;11.54;56.67;99557.41;5096495;28;20039;-81
2021/04/21 03:07:04;;;;;;;20.92;17.10;;;;;;;11.56;56.58;99541.38;5064984;28;19916;-78
2021/04/21 03:09:46;;;;;;;23.95;19.73;;;;;;;11.57;56.47;99551.75;5096028;28;20418;-77
2021/04/21 03:12:14;;;;;;;23.23;18.10;;;;;;;10.72;56.73;99414.81;5095739;28;20503;-79
2021/04/21 03:14:46;;;;;;;24.10;19.58;;;;;;;11.63;56.17;99561.59;5077668;28;20020;-79
2021/04/21 03:17:12;;;;;;;26.45;19.65;;;;;;;11.60;56.93;99566.44;5095816;28;20024;-79
2021/04/21 03:19:42;;;;;;;26.83;19.48;;;;;;;11.38;56.68;99534.63;5077604;28;20028;-78
2021/04/21 03:22:14;;;;;;;23.38;17.80;;;;;;;11.39;56.29;99544.19;5095649;28;20028;-77
2021/04/21 03:24:48;;;;;;;21.30;17.48;;;;;;;11.11;56.70;99504.34;5095474;28;20461;-77
2021/04/21 03:27:14;;;;;;;21.02;16.70;;;;;;;11.55;56.64;99569.63;5095594;28;20082;-77
2021/04/21 03:29:46;;;;;;;26.27;17.25;;;;;;;11.55;56.86;99587.31;5077481;28;20111;-78
2021/04/21 03:32:28;;;;;;;22.30;17.55;;;;;;;11.50;56.78;99579.94;5077431;28;20024;-80
2021/04/21 03:34:56;;;;;;;21.75;17.92;;;;;;;11.46;56.97;99576.84;5095376;28;20034;-79
2021/04/21 03:37:35;;;;;;;19.95;17.50;;;;;;;11.37;57.11;99577.94;5077299;28;20028;-80
2021/04/21 03:40:00;;;;;;;23.92;19.60;;;;;;;11.09;57.36;99522.22;5095514;28;20031;-77
2021/04/21 03:42:26;;;;;;;22.13;17.45;;;;;;;11.44;57.52;99583.31;5095379;28;20095;-79
2021/04/21 03:44:52;;;;;;;22.00;18.40;;;;;;;11.43;57.41;99589.59;5095262;28;20350;-81
2021/04/21 03:47:18;;;;;;;20.98;16.35;;;;;;;11.42;57.45;99590.59;5077353;28;20028;-79
2021/04/21 03:49:44;;;;;;;23.08;17.25;;;;;;;11.41;57.24;99599.53;5076998;28;20133;-78
2021/04/21 03:52:11;;;;;;;21.83;18.67;;;;;;;11.31;57.40;99585.78;5095278;28;20418;-80
2021/04/21 03:54:40;;;;;;;22.27;18.75;;;;;;;11.41;57.09;99605.66;5095113;28;20031;-80
2021/04/21 03:57:07;;;;;;;27.50;22.48;;;;;;;10.64;57.71;99488.84;5077220;28;20024;-76
2021/04/21 03:59:36;;;;;;;29.48;21.73;;;;;;;11.30;57.66;99611.38;5077080;28;20024;-78
2021/04/21 04:02:06;;;;;;;26.05;22.20;;;;;;;10.59;57.77;99504.41;5095229;28;20024;-81
2021/04/21 04:04:37;;;;;;;27.48;22.63;;;;;;;11.31;57.68;99610.38;5094773;28;20024;-79
2021/04/21 04:07:09;;;;;;;21.38;18.70;;;;;;;10.96;57.71;99552.91;5077203;28;20051;-79
2021/04/21 04:09:35;;;;;;;21.48;19.17;;;;;;;11.31;57.30;99606.91;5095036;28;20028;-79
2021/04/21 04:12:05;;;;;;;24.52;20.00;;;;;;;11.31;57.31;99613.03;5094781;28;20028;-81
2021/04/21 04:14:33;;;;;;;23.60;20.75;;;;;;;11.30;57.66;99610.56;5094702;28;20024;-80
2021/04/21 04:17:03;;;;;;;27.92;23.27;;;;;;;10.76;57.13;99527.00;5077072;28;20172;-81
2021/04/21 04:19:31;;;;;;;29.58;26.10;;;;;;;11.33;57.59;99626.06;5095202;28;20027;-76
2021/04/21 04:22:02;;;;;;;25.58;22.88;;;;;;;11.33;57.17;99629.53;5095407;28;20024;-78
2021/04/21 04:24:35;;;;;;;26.23;21.73;;;;;;;10.63;57.07;99521.53;5076759;28;20024;-77
2021/04/21 04:27:01;;;;;;;23.70;20.77;;;;;;;11.25;57.49;99611.09;5094677;28;20060;-78
2021/04/21 04:29:27;;;;;;;25.45;21.50;;;;;;;10.97;56.99;99551.91;5094612;28;20384;-76
2021/04/21 04:31:53;;;;;;;25.67;21.77;;;;;;;11.46;57.01;99631.53;5094365;28;20089;-78
2021/04/21 04:34:21;;;;;;;28.80;22.85;;;;;;;11.51;56.89;99641.56;5076616;28;20062;-76
2021/04/21 04:36:47;;;;;;;29.10;22.98;;;;;;;11.42;57.08;99624.97;5094441;28;20036;-76
2021/04/21 04:39:14;;;;;;;26.80;21.77;;;;;;;11.58;56.87;99651.25;5094678;28;20383;-79
2021/04/21 04:41:41;;;;;;;28.95;22.20;;;;;;;11.60;57.26;99640.47;5094346;28;20038;-81
2021/04/21 04:44:07;;;;;;;30.13;22.40;;;;;;;11.42;57.07;99607.28;5076606;28;20032;-78
2021/04/21 04:46:49;;;;;;;32.03;21.75;;;;;;;11.36;57.19;99589.50;5094327;28;20031;-79
2021/04/21 04:49:18;;;;;;;29.70;20.88;;;;;;;11.75;57.18;99638.66;5094647;28;20028;-77
2021/04/21 04:51:44;;;;;;;29.10;20.20;;;;;;;11.80;57.07;99640.78;5076529;28;20027;-78
2021/04/21 04:54:13;;;;;;;25.05;20.35;;;;;;;11.82;57.10;99642.22;5076567;28;20448;-79
2021/04/21 04:56:43;;;;;;;29.38;20.92;;;;;;;11.87;56.77;99639.84;5094277;28;20108;-77
2021/04/21 04:59:09;;;;;;;27.17;21.25;;;;;;;11.92;57.16;99656.03;5094305;28;20475;-81
2021/04/21 05:01:46;;;;;;;28.90;21.45;;;;;;;11.11;56.39;99516.75;5094182;28;20032;-78
2021/04/21 05:04:16;;;;;;;31.55;22.30;;;;;;;12.02;56.61;99655.75;5076315;28;20055;-80
2021/04/21 05:06:57;;;;;;;33.92;21.88;;;;;;;12.06;56.36;99654.38;5093818;28;20496;-77
2021/04/21 05:09:27;;;;;;;35.72;24.25;;;;;;;12.06;56.33;99647.25;5076337;28;20070;-80
2021/04/21 05:11:57;;;;;;;34.00;25.42;;;;;;;11.19;56.57;99506.13;5076404;28;20341;-79
2021/04/21 05:14:23;;;;;;;32.25;25.50;;;;;;;12.18;56.57;99655.53;5094429;28;20032;-79
2021/04/21 05:16:55;;;;;;;32.63;26.90;;;;;;;12.19;56.44;99659.81;5094260;28;20028;-78
2021/04/21 05:19:49;;;;;;;37.63;27.85;;;;;;;12.20;56.03;99658.00;5094343;28;20024;-78
2021/04/21 05:22:52;;;;;;;37.03;28.77;;;;;;;12.19;56.38;99664.31;5094121;28;20032;-77
2021/04/21 05:25:39;;;;;;;38.30;28.60;;;;;;;12.19;56.37;99664.31;5077576;28;20028;-79
2021/04/21 05:28:28;;;;;;;34.17;28.40;;;;;;;12.23;56.08;99670.88;5097872;28;20097;-75
2021/04/21 05:31:18;;;;;;;39.53;26.52;;;;;;;12.28;55.89;99665.84;5097754;28;20052;-76
2021/04/21 05:34:05;;;;;;;32.63;28.33;;;;;;;12.33;55.89;99663.44;5097698;28;20024;-80
2021/04/21 05:36:58;;;;;;;34.03;29.55;;;;;;;12.39;55.96;99668.00;5097921;28;20045;-78
2021/04/21 05:39:35;;;;;;;40.58;31.40;;;;;;;12.47;55.54;99669.72;5079378;28;20038;-76
2021/04/21 05:42:42;;;;;;;34.60;27.95;;;;;;;12.29;55.58;99627.75;5097283;28;20562;-77
2021/04/21 05:45:36;;;;;;;36.63;28.65;;;;;;;12.60;55.55;99670.66;5087581;28;20042;-78
2021/04/21 05:48:26;;;;;;;35.65;27.88;;;;;;;12.63;55.47;99665.03;5093547;28;20441;-75
2021/04/21 05:51:10;;;;;;;35.05;25.85;;;;;;;12.69;55.60;99672.22;5095423;28;20060;-79
2021/04/21 05:53:44;;;;;;;31.25;27.95;;;;;;;12.79;55.53;99677.22;5096725;28;20044;-75
2021/04/21 05:56:31;;;;;;;35.00;27.67;;;;;;;12.86;55.70;99693.16;5097360;28;20449;-77
2021/04/21 05:59:14;;;;;;;31.70;26.90;;;;;;;12.90;55.67;99670.59;5097176;28;20046;-75
2021/04/21 06:01:43;;;;;;;31.33;25.92;;;;;;;12.99;55.15;99677.41;5097035;28;20036;-74
2021/04/21 06:04:09;;;;;;;28.45;24.90;;;;;;;13.03;55.15;99683.97;5096803;28;20032;-74
2021/04/21 06:06:34;;;;;;;29.95;23.98;;;;;;;13.02;55.00;99669.88;5096402;28;20105;-74
2021/04/21 06:09:10;;;;;;;26.77;22.13;;;;;;;12.77;55.16;99614.81;5096946;28;20081;-77
2021/04/21 06:11:36;;;;;;;24.05;20.77;;;;;;;12.68;54.72;99606.19;5096903;28;20030;-79
2021/04/21 06:14:05;;;;;;;21.90;19.00;;;;;;;13.15;54.33;99677.13;5096499;28;20032;-80
2021/04/21 06:16:31;;;;;;;22.63;19.15;;;;;;;13.17;54.24;99653.09;5095480;28;20035;-80
2021/04/21 06:18:59;;;;;;;22.25;19.20;;;;;;;13.49;54.33;99679.09;5096449;28;20115;-78
2021/04/21 06:21:27;;;;;;;23.85;19.08;;;;;;;13.57;53.58;99680.75;5097705;28;20107;-80
2021/04/21 06:23:55;;;;;;;21.27;19.05;;;;;;;13.50;53.57;99672.75;5096180;28;20056;-77
2021/04/21 06:26:28;;;;;;;22.25;19.67;;;;;;;13.62;53.05;99681.00;5096266;28;20327;-81
2021/04/21 06:29:05;;;;;;;22.83;20.27;;;;;;;13.35;52.65;99651.63;5095977;28;20035;-76
2021/04/21 06:31:39;;;;;;;20.95;18.67;;;;;;;13.67;52.44;99684.72;5095604;28;20434;-80
2021/04/21 06:34:06;;;;;;;23.08;20.23;;;;;;;13.75;51.75;99683.75;5078319;28;20055;-81
2021/04/21 06:36:42;;;;;;;24.50;21.90;;;;;;;13.49;51.65;99649.91;5078154;28;20035;-78
2021/04/21 06:39:08;;;;;;;24.08;21.25;;;;;;;13.77;51.37;99665.78;5096386;28;20031;-80
2021/04/21 06:41:34;;;;;;;19.60;14.40;;;;;;;13.91;50.86;99675.47;5096221;28;20023;-82
2021/04/21 06:43:59;;;;;;;17.33;12.82;;;;;;;14.02;50.25;99673.25;5096097;28;20034;-82
2021/04/21 06:46:25;;;;;;;13.60;12.20;;;;;;;13.98;49.89;99672.84;5078172;28;20035;-84
2021/04/21 06:48:53;;;;;;;9.70;8.80;;;;;;;14.27;47.28;99698.31;5093144;28;20123;-83
2021/04/21 06:51:20;;;;;;;9.68;8.68;;;;;;;13.72;47.83;99607.19;5088807;28;20035;-80
2021/04/21 06:53:47;;;;;;;9.88;8.95;;;;;;;14.35;47.37;99697.34;5094468;28;20123;-79
2021/04/21 06:56:14;;;;;;;11.00;9.57;;;;;;;14.43;47.45;99705.97;5093686;28;20024;-79
2021/04/21 06:58:40;;;;;;;9.30;8.23;;;;;;;14.49;47.07;99715.00;5090935;28;20088;-81
2021/04/21 07:01:13;;;;;;;9.38;8.38;;;;;;;14.48;45.60;99713.34;5083584;28;20081;-81
2021/04/21 07:03:42;;;;;;;9.57;8.68;;;;;;;14.17;46.67;99664.16;5073764;28;20464;-82
2021/04/21 07:06:08;;;;;;;9.25;8.35;;;;;;;14.34;45.81;99677.09;5093788;28;20051;-81
2021/04/21 07:08:38;;;;;;;9.27;8.38;;;;;;;14.34;46.02;99677.91;5097504;28;20032;-79
2021/04/21 07:11:04;;;;;;;10.18;9.18;;;;;;;14.52;45.93;99704.78;5093722;28;20081;-80
2021/04/21 07:13:49;;;;;;;10.35;9.35;;;;;;;14.41;46.09;99691.22;5097579;28;20107;-83
2021/04/21 07:16:44;;;;;;;10.30;9.35;;;;;;;14.29;45.42;99677.69;5098286;28;20020;-84
2021/04/21 07:19:12;;;;;;;12.38;10.20;;;;;;;14.18;46.31;99647.22;5076374;28;20035;-81
2021/04/21 07:21:40;;;;;;;12.20;10.13;;;;;;;14.71;45.97;99737.75;5097698;28;20028;-77
2021/04/21 07:24:08;;;;;;;11.20;10.13;;;;;;;14.78;45.91;99701.38;5095505;28;20085;-81
2021/04/21 07:26:36;;;;;;;11.13;10.10;;;;;;;14.58;45.79;99648.19;5095471;28;20392;-83
2021/04/21 07:29:03;;;;;;;9.20;8.30;;;;;;;14.46;45.21;99612.59;5096653;28;20032;-83
2021/04/21 07:31:34;;;;;;;9.63;8.73;;;;;;;15.08;45.29;99696.53;5094621;28;20020;-81
2021/04/21 07:34:00;;;;;;;8.77;8.00;;;;;;;14.08;45.02;99537.06;5086630;28;20111;-79
2021/04/21 07:36:28;;;;;;;9.18;8.27;;;;;;;14.75;45.14;99629.19;5094273;28;20158;-81
2021/04/21 07:39:05;;;;;;;9.93;8.90;;;;;;;15.43;44.24;99731.75;5094147;28;20031;-80
2021/04/21 07:41:33;;;;;;;8.45;7.68;;;;;;;15.44;44.69;99725.41;5087364;28;20039;-78
2021/04/21 07:43:59;;;;;;;9.80;8.90;;;;;;;15.51;44.52;99739.53;5084318;28;20035;-80
2021/04/21 07:46:25;;;;;;;8.82;8.02;;;;;;;15.46;44.41;99723.34;5075934;28;20028;-80
2021/04/21 07:48:52;;;;;;;8.95;8.05;;;;;;;15.34;44.11;99702.91;5094007;28;20440;-84
2021/04/21 07:51:19;;;;;;;8.57;7.68;;;;;;;15.16;43.95;99660.94;5092726;28;20028;-81
2021/04/21 07:53:58;;;;;;;8.52;7.70;;;;;;;15.04;43.58;99626.19;5065042;28;20035;-81
2021/04/21 07:56:28;;;;;;;8.25;7.45;;;;;;;15.61;43.79;99712.56;5058723;28;20361;-80
2021/04/21 07:58:54;;;;;;;11.70;8.57;;;;;;;15.79;43.36;99723.38;5076561;28;20107;-80
2021/04/21 08:01:35;;;;;;;10.18;9.25;;;;;;;15.99;43.22;99744.66;5092766;28;20056;-81
2021/04/21 08:04:25;;;;;;;7.53;6.60;;;;;;;16.02;41.59;99740.75;5081514;28;20109;-81
2021/04/21 08:06:53;;;;;;;9.05;7.85;;;;;;;16.11;42.51;99735.00;5057590;28;20080;-82
2021/04/21 08:09:21;;;;;;;8.10;7.35;;;;;;;15.50;42.58;99612.00;5071695;28;20482;-78
2021/04/21 08:12:05;;;;;;;9.68;8.70;;;;;;;15.93;42.65;99667.44;5067949;28;20399;-78
2021/04/21 08:14:50;;;;;;;9.27;8.32;;;;;;;15.69;42.66;99621.84;5071100;28;20077;-79
2021/04/21 08:17:19;;;;;;;9.45;8.55;;;;;;;16.57;42.85;99727.88;5087091;28;20091;-82
2021/04/21 08:19:52;;;;;;;10.43;7.95;;;;;;;16.75;41.69;99741.34;5092025;28;20396;-79
2021/04/21 08:22:29;;;;;;;7.82;6.97;;;;;;;16.87;42.04;99720.16;5073446;28;20032;-79
2021/04/21 08:24:56;;;;;;;7.72;7.03;;;;;;;16.77;41.68;99694.78;5062362;28;20043;-81
2021/04/21 08:27:23;;;;;;;8.70;6.85;;;;;;;16.60;40.74;99679.47;5071936;28;20032;-80
2021/04/21 08:29:50;;;;;;;8.45;7.32;;;;;;;16.98;40.64;99719.47;5060393;28;20324;-77
2021/04/21 08:32:25;;;;;;;9.85;7.63;;;;;;;16.90;40.69;99679.72;5065060;28;20350;-79
2021/04/21 08:34:51;;;;;;;9.05;8.15;;;;;;;17.20;41.11;99703.97;5063391;28;20058;-78
2021/04/21 08:37:17;;;;;;;9.35;8.40;;;;;;;16.87;40.80;99627.63;5074280;28;20028;-79
2021/04/21 08:39:43;;;;;;;8.82;7.93;;;;;;;17.56;40.49;99714.75;5062257;28;20112;-78
2021/04/21 08:42:10;;;;;;;8.60;7.43;;;;;;;17.64;40.13;99714.47;5056409;28;20140;-79
2021/04/21 08:44:41;;;;;;;7.70;7.00;;;;;;;17.39;39.52;99670.94;5073289;28;20028;-80
2021/04/21 08:47:08;;;;;;;7.15;6.55;;;;;;;17.83;39.45;99710.00;5069895;28;20024;-81
2021/04/21 08:49:35;;;;;;;7.30;6.60;;;;;;;18.00;39.54;99700.38;5069502;28;20031;-81
2021/04/21 08:52:01;;;;;;;7.82;7.03;;;;;;;18.20;39.10;99729.56;5072577;28;20454;-76
2021/04/21 08:54:29;;;;;;;8.95;7.63;;;;;;;17.44;38.71;99578.50;5069005;28;20434;-81
2021/04/21 08:56:55;;;;;;;6.93;6.22;;;;;;;17.85;37.90;99635.00;5069758;28;20024;-82
2021/04/21 08:59:23;;;;;;;7.20;6.50;;;;;;;18.35;37.73;99700.59;5076264;28;20036;-78
2021/04/21 09:01:49;;;;;;;7.50;6.80;;;;;;;18.52;37.75;99702.66;5064684;28;20147;-81
2021/04/21 09:04:15;;;;;;;7.82;6.97;;;;;;;18.13;37.68;99608.56;5067851;28;20028;-83
2021/04/21 09:06:42;;;;;;;9.60;7.95;;;;;;;18.22;37.62;99593.84;5089402;28;20040;-81
2021/04/21 09:09:08;;;;;;;9.48;7.85;;;;;;;18.32;38.13;99577.25;5083913;28;20138;-79
2021/04/21 09:11:34;;;;;;;8.68;7.88;;;;;;;18.85;37.73;99652.22;5097940;28;20202;-81
2021/04/21 09:14:00;;;;;;;8.32;7.43;;;;;;;18.52;37.53;99571.63;5097784;28;20059;-79
2021/04/21 09:16:26;;;;;;;8.15;7.45;;;;;;;19.08;37.30;99666.69;5096800;28;20410;-80
2021/04/21 09:18:52;;;;;;;8.57;7.68;;;;;;;18.45;37.44;99589.63;5091400;28;20036;-80
2021/04/21 09:21:32;;;;;;;8.50;7.68;;;;;;;18.20;36.95;99579.09;5089838;28;20025;-79
2021/04/21 09:23:57;;;;;;;8.60;7.70;;;;;;;18.58;37.81;99653.59;5082138;28;20032;-78
2021/04/21 09:26:26;;;;;;;7.88;7.07;;;;;;;18.19;37.25;99596.16;5096254;28;20034;-79
2021/04/21 09:28:54;;;;;;;7.80;6.80;;;;;;;19.04;36.67;99652.97;5070805;28;20027;-78
2021/04/21 09:31:22;;;;;;;9.00;7.45;;;;;;;19.05;36.58;99658.09;5079526;28;20107;-80
2021/04/21 09:34:06;;;;;;;8.27;7.40;;;;;;;18.86;36.26;99645.84;5059518;28;20422;-79
2021/04/21 09:36:33;;;;;;;8.63;7.75;;;;;;;18.80;36.55;99646.75;5094265;28;20028;-79
2021/04/21 09:39:16;;;;;;;7.88;7.07;;;;;;;18.48;36.28;99610.56;5074134;28;20487;-79
2021/04/21 09:41:43;;;;;;;9.05;8.02;;;;;;;18.28;37.04;99627.69;5059845;28;20033;-79
2021/04/21 09:44:20;;;;;;;13.18;8.32;;;;;;;18.02;37.40;99636.84;5059803;28;20097;-79
2021/04/21 09:46:47;;;;;;;8.25;7.45;;;;;;;17.51;37.81;99601.63;5095795;28;20032;-80
2021/04/21 09:49:35;;;;;;;9.98;7.40;;;;;;;17.89;38.65;99682.44;5096975;28;20035;-79
2021/04/21 09:52:13;;;;;;;9.63;7.93;;;;;;;17.61;39.42;99677.50;5065573;28;20051;-77
2021/04/21 09:54:42;;;;;;;8.63;7.78;;;;;;;17.41;39.58;99683.03;5092331;28;20133;-79
2021/04/21 09:57:10;;;;;;;8.85;7.95;;;;;;;16.42;40.16;99552.25;5097614;28;20072;-78
2021/04/21 09:59:37;;;;;;;9.70;7.82;;;;;;;17.05;40.64;99678.38;5080235;28;20119;-79
2021/04/21 10:02:03;;;;;;;12.13;8.57;;;;;;;16.88;41.38;99679.13;5062461;28;20059;-77
2021/04/21 10:04:29;;;;;;;9.23;8.32;;;;;;;16.70;41.90;99680.66;5077679;28;20028;-78
2021/04/21 10:07:00;;;;;;;10.57;8.93;;;;;;;16.38;42.20;99639.00;5075980;28;20045;-78
2021/04/21 10:09:33;;;;;;;11.70;7.90;;;;;;;16.60;42.02;99698.94;5081260;28;20032;-80
2021/04/21 10:12:13;;;;;;;8.95;8.05;;;;;;;16.51;42.20;99694.91;5079001;28;20040;-78
2021/04/21 10:14:39;;;;;;;7.03;6.30;;;;;;;16.37;42.05;99707.47;5080444;28;20143;-77
2021/04/21 10:17:05;;;;;;;5.47;4.97;;;;;;;15.91;42.04;99650.84;5096295;28;20396;-79
2021/04/21 10:19:32;;;;;;;6.18;5.57;;;;;;;16.16;42.99;99715.72;5095851;28;20024;-80
2021/04/21 10:21:58;;;;;;;8.15;7.35;;;;;;;15.52;43.21;99634.72;5095085;28;20123;-78
2021/04/21 10:24:25;;;;;;;7.47;5.63;;;;;;;15.74;43.10;99699.22;5092759;28;20032;-79
2021/04/21 10:26:51;;;;;;;6.55;5.78;;;;;;;14.94;43.15;99609.81;5065920;28;20357;-78
2021/04/21 10:29:17;;;;;;;5.90;4.80;;;;;;;15.59;43.21;99735.88;5081102;28;20032;-80
2021/04/21 10:31:43;;;;;;;5.88;5.38;;;;;;;15.26;44.13;99698.59;5094345;28;20034;-79
2021/04/21 10:34:09;;;;;;;6.95;6.10;;;;;;;15.13;45.21;99704.72;5077762;28;20114;-78
2021/04/21 10:36:34;;;;;;;7.07;6.30;;;;;;;15.03;45.20;99727.41;5079572;28;20032;-78
2021/04/21 10:39:00;;;;;;;6.68;5.00;;;;;;;14.47;45.20;99662.06;5096309;28;20024;-77
2021/04/21 10:41:35;;;;;;;8.77;5.45;;;;;;;14.85;45.32;99727.97;5096235;28;20028;-80
2021/04/21 10:44:22;;;;;;;6.75;5.40;;;;;;;14.80;45.65;99738.38;5078148;28;20032;-78
2021/04/21 10:47:00;;;;;;;5.95;5.38;;;;;;;14.59;45.54;99752.63;5075551;28;20107;-81
2021/04/21 10:49:49;;;;;;;8.27;5.93;;;;;;;14.56;45.81;99740.56;5075781;28;20496;-77
2021/04/21 10:52:23;;;;;;;7.03;6.28;;;;;;;14.73;46.15;99756.16;5084211;28;20032;-77
2021/04/21 10:54:52;;;;;;;9.45;7.10;;;;;;;14.75;46.52;99762.91;5084533;28;20028;-78
2021/04/21 10:57:24;;;;;;;10.48;8.65;;;;;;;14.89;46.78;99761.13;5070822;28;20063;-78
2021/04/21 11:00:05;;;;;;;8.98;8.18;;;;;;;14.87;47.88;99768.50;5074922;28;20427;-78
2021/04/21 11:02:43;;;;;;;10.85;8.90;;;;;;;14.80;47.98;99775.59;5094526;28;20032;-81
2021/04/21 11:05:13;;;;;;;8.00;7.20;;;;;;;14.69;48.26;99784.97;5077650;28;20127;-80
2021/04/21 11:07:39;;;;;;;6.93;6.30;;;;;;;14.61;48.85;99795.78;5068611;28;20055;-80
2021/04/21 11:10:29;;;;;;;6.50;5.90;;;;;;;14.44;48.42;99783.84;5058088;28;20082;-77
2021/04/21 11:12:55;;;;;;;6.10;5.43;;;;;;;14.47;48.94;99802.84;5075338;28;20040;-78
2021/04/21 11:15:34;;;;;;;3.75;3.45;;;;;;;13.64;46.42;99663.06;5093007;28;20324;-80
2021/04/21 11:18:11;;;;;;;8.20;6.78;;;;;;;14.49;47.05;99792.03;5076901;28;20032;-77
2021/04/21 11:20:46;;;;;;;7.90;7.07;;;;;;;14.51;47.18;99784.69;5092427;28;20058;-77
2021/04/21 11:23:53;;;;;;;8.25;7.45;;;;;;;14.53;48.01;99791.44;5094448;28;20032;-76
2021/04/21 11:26:25;;;;;;;6.82;5.70;;;;;;;14.46;47.46;99790.59;5084144;28;20032;-77
2021/04/21 11:28:53;;;;;;;;;;;;;;;14.35;47.64;99800.94;5095114;28;20453;-77
2021/04/21 11:31:20;;;;;;;4.53;4.10;;;;;;;14.30;48.49;99789.06;5096674;28;20004;-78
2021/04/21 11:33:53;;;;;;;5.55;4.88;;;;;;;14.30;49.51;99789.06;5092155;28;20108;-78
2021/04/21 11:36:35;;;;;;;5.75;5.25;;;;;;;13.79;50.54;99705.41;5086367;28;20502;-78
2021/04/21 11:39:00;;;;;;;;;;;;;;;14.18;51.52;99772.03;5092287;28;20035;-82
2021/04/21 11:41:45;;;;;;;7.13;5.90;;;;;;;14.23;51.63;99755.50;5093167;28;19912;-79
2021/04/21 11:45:00;;;;;;;7.07;6.47;;;;;;;14.26;51.61;99747.97;5079058;28;20049;-81
2021/04/21 11:47:41;;;;;;;17.70;13.27;;;;;;;14.24;52.99;99746.53;5075848;28;20047;-80
2021/04/21 11:50:09;;;;;;;15.98;12.15;;;;;;;14.20;53.52;99740.78;5094729;28;20042;-81
2021/04/21 11:52:59;;;;;;;17.73;12.68;;;;;;;14.27;53.72;99738.16;5094519;28;20039;-76